Time,TemperatureF,DewpointF,PressureIn,WindDirection,WindDirectionDegrees,WindSpeedMPH,WindSpeedGustMPH,Humidity,HourlyPrecipIn,Conditions,Clouds,dailyrainin,SoftwareType,DateUTC
2013-05-28 00:00:00,61.0,60.1,29.76,ESE,113,2.0,8.0,97,0.00,,,0.03,Wunderground v.1.15,2013-05-28 05:00:00,
2013-05-28 00:06:00,60.9,60.0,29.76,NE,46,2.0,8.0,97,0.00,,,0.00,Wunderground v.1.15,2013-05-28 05:06:00,
2013-05-28 00:12:00,60.8,59.9,29.76,ESE,113,2.0,8.0,97,0.00,,,0.00,Wunderground v.1.15,2013-05-28 05:12:00,
2013-05-28 00:18:00,60.7,59.8,29.76,ESE,115,2.0,8.0,97,0.00,,,0.00,Wunderground v.1.15,2013-05-28 05:18:00,
2013-05-28 00:24:00,60.7,59.8,29.75,ESE,110,2.0,8.0,97,0.00,,,0.00,Wunderground v.1.15,2013-05-28 05:24:00,
2013-05-28 00:30:00,60.5,59.6,29.75,ESE,116,1.0,8.0,97,0.00,,,0.00,Wunderground v.1.15,2013-05-28 05:30:00,
2013-05-28 00:36:00,60.5,59.6,29.75,ESE,103,2.0,8.0,97,0.00,,,0.00,Wunderground v.1.15,2013-05-28 05:36:00,
2013-05-28 00:42:00,60.4,59.5,29.75,ESE,121,2.0,3.0,97,0.00,,,0.00,Wunderground v.1.15,2013-05-28 05:42:00,
2013-05-28 00:48:00,60.3,59.4,29.74,ESE,122,2.0,8.0,97,0.00,,,0.00,Wunderground v.1.15,2013-05-28 05:48:00,
2013-05-28 00:54:00,60.2,59.3,29.74,ESE,110,2.0,8.0,97,0.00,,,0.00,Wunderground v.1.15,2013-05-28 05:54:00,
2013-05-28 01:00:00,60.1,59.2,29.74,East,96,2.0,2.0,97,0.00,,,0.00,Wunderground v.1.15,2013-05-28 06:00:00,
2013-05-28 01:06:00,60.1,59.5,29.74,ESE,104,2.0,8.0,98,0.00,,,0.00,Wunderground v.1.15,2013-05-28 06:06:00,
2013-05-28 01:12:00,60.1,59.5,29.74,ESE,117,2.0,8.0,98,0.00,,,0.00,Wunderground v.1.15,2013-05-28 06:12:00,
2013-05-28 01:18:00,60.0,59.4,29.74,ESE,105,3.0,8.0,98,0.00,,,0.00,Wunderground v.1.15,2013-05-28 06:18:00,
2013-05-28 01:24:00,60.0,59.4,29.74,SE,136,2.0,8.0,98,0.00,,,0.00,Wunderground v.1.15,2013-05-28 06:24:00,
2013-05-28 01:30:00,59.9,59.3,29.73,ESE,110,2.0,2.0,98,0.00,,,0.01,Wunderground v.1.15,2013-05-28 06:30:00,
2013-05-28 01:36:00,59.9,59.3,29.73,ESE,102,2.0,8.0,98,0.00,,,0.01,Wunderground v.1.15,2013-05-28 06:36:00,
2013-05-28 01:42:00,59.9,59.3,29.72,East,85,1.0,8.0,98,0.00,,,0.01,Wunderground v.1.15,2013-05-28 06:42:00,
2013-05-28 01:48:00,59.8,59.2,29.72,ESE,118,1.0,8.0,98,0.00,,,0.01,Wunderground v.1.15,2013-05-28 06:48:00,
2013-05-28 01:54:00,59.8,59.2,29.72,ESE,120,1.0,8.0,98,0.00,,,0.01,Wunderground v.1.15,2013-05-28 06:54:00,
2013-05-28 02:00:00,59.8,59.2,29.72,ESE,116,1.0,8.0,98,0.00,,,0.01,Wunderground v.1.15,2013-05-28 07:00:00,
2013-05-28 02:06:00,59.8,59.2,29.71,ESE,117,2.0,8.0,98,0.00,,,0.01,Wunderground v.1.15,2013-05-28 07:06:00,
2013-05-28 02:12:00,59.7,59.1,29.71,East,95,1.0,8.0,98,0.00,,,0.01,Wunderground v.1.15,2013-05-28 07:12:00,
2013-05-28 02:18:00,59.7,59.1,29.71,SE,124,1.0,8.0,98,0.00,,,0.01,Wunderground v.1.15,2013-05-28 07:18:00,
2013-05-28 02:24:00,59.8,59.2,29.71,ESE,107,2.0,8.0,98,0.00,,,0.01,Wunderground v.1.15,2013-05-28 07:24:00,
2013-05-28 02:30:00,59.8,59.2,29.71,ESE,113,2.0,8.0,98,0.00,,,0.01,Wunderground v.1.15,2013-05-28 07:30:00,
2013-05-28 02:36:00,59.8,59.2,29.74,SE,138,1.0,8.0,98,1.60,,,0.04,Wunderground v.1.15,2013-05-28 07:36:00,
2013-05-28 02:42:00,59.8,59.2,29.75,SSE,158,2.0,8.0,98,1.01,,,0.15,Wunderground v.1.15,2013-05-28 07:42:00,
2013-05-28 02:48:00,59.8,59.2,29.72,ESE,117,3.0,8.0,98,1.40,,,0.33,Wunderground v.1.15,2013-05-28 07:48:00,
2013-05-28 02:54:00,59.7,59.1,29.73,East,81,3.0,8.0,98,0.42,,,0.44,Wunderground v.1.15,2013-05-28 07:54:00,
2013-05-28 03:00:00,59.7,59.1,29.73,SE,133,1.0,8.0,98,0.17,,,0.45,Wunderground v.1.15,2013-05-28 08:00:00,
2013-05-28 03:06:00,59.7,59.1,29.73,SE,131,2.0,8.0,98,0.13,,,0.46,Wunderground v.1.15,2013-05-28 08:06:00,
2013-05-28 03:12:00,59.7,59.1,29.73,ESE,122,2.0,8.0,98,0.09,,,0.47,Wunderground v.1.15,2013-05-28 08:12:00,
2013-05-28 03:18:00,59.6,59.0,29.72,East,98,1.0,8.0,98,0.32,,,0.49,Wunderground v.1.15,2013-05-28 08:18:00,
2013-05-28 03:24:00,59.6,59.0,29.73,SE,140,1.0,8.0,98,0.27,,,0.52,Wunderground v.1.15,2013-05-28 08:24:00,
2013-05-28 03:30:00,59.6,59.0,29.73,ESE,110,2.0,2.0,98,0.33,,,0.53,Wunderground v.1.15,2013-05-28 08:30:00,
2013-05-28 03:36:00,59.6,59.3,29.72,ESE,110,1.0,8.0,99,0.36,,,0.56,Wunderground v.1.15,2013-05-28 08:36:00,
2013-05-28 03:42:00,59.7,59.4,29.71,ESE,106,0.0,8.0,99,0.29,,,0.59,Wunderground v.1.15,2013-05-28 08:42:00,
2013-05-28 03:48:00,59.7,59.4,29.70,ESE,107,0.0,8.0,99,0.25,,,0.60,Wunderground v.1.15,2013-05-28 08:48:00,
2013-05-28 03:54:00,59.8,59.5,29.69,East,98,0.0,8.0,99,0.24,,,0.63,Wunderground v.1.15,2013-05-28 08:54:00,
2013-05-28 04:00:00,59.8,59.5,29.68,East,97,0.0,8.0,99,0.25,,,0.65,Wunderground v.1.15,2013-05-28 09:00:00,
2013-05-28 04:06:00,59.9,59.6,29.67,ENE,71,2.0,8.0,99,0.40,,,0.68,Wunderground v.1.15,2013-05-28 09:06:00,
2013-05-28 04:12:00,59.9,59.6,29.67,ENE,58,3.0,8.0,99,0.39,,,0.71,Wunderground v.1.15,2013-05-28 09:12:00,
2013-05-28 04:18:00,59.9,59.6,29.67,NE,56,2.0,8.0,99,0.23,,,0.72,Wunderground v.1.15,2013-05-28 09:18:00,
2013-05-28 04:24:00,60.0,59.7,29.65,NNE,26,2.0,8.0,99,0.10,,,0.73,Wunderground v.1.15,2013-05-28 09:24:00,
2013-05-28 04:30:00,60.1,59.8,29.65,ENE,60,1.0,1.0,99,0.10,,,0.74,Wunderground v.1.15,2013-05-28 09:30:00,
2013-05-28 04:36:00,60.1,59.8,29.64,East,84,0.0,8.0,99,0.05,,,0.74,Wunderground v.1.15,2013-05-28 09:36:00,
2013-05-28 04:42:00,60.1,59.8,29.64,ESE,122,1.0,8.0,99,0.04,,,0.75,Wunderground v.1.15,2013-05-28 09:42:00,
2013-05-28 04:48:00,60.1,59.8,29.64,ESE,105,1.0,8.0,99,0.04,,,0.75,Wunderground v.1.15,2013-05-28 09:48:00,
2013-05-28 04:54:00,60.2,59.9,29.65,ESE,110,1.0,8.0,99,0.04,,,0.75,Wunderground v.1.15,2013-05-28 09:54:00,
2013-05-28 05:00:00,60.1,59.8,29.65,SE,125,1.0,8.0,99,0.00,,,0.75,Wunderground v.1.15,2013-05-28 10:00:00,
2013-05-28 05:06:00,60.1,59.8,29.66,ESE,106,1.0,8.0,99,0.00,,,0.75,Wunderground v.1.15,2013-05-28 10:06:00,
2013-05-28 05:12:00,60.1,59.8,29.65,ESE,108,2.0,8.0,99,0.00,,,0.75,Wunderground v.1.15,2013-05-28 10:12:00,
2013-05-28 05:18:00,60.0,59.7,29.65,ESE,110,3.0,8.0,99,0.00,,,0.75,Wunderground v.1.15,2013-05-28 10:18:00,
2013-05-28 05:24:00,59.9,59.6,29.66,ENE,68,2.0,8.0,99,0.00,,,0.75,Wunderground v.1.15,2013-05-28 10:24:00,
2013-05-28 05:30:00,59.8,59.5,29.67,SE,134,1.0,8.0,99,0.00,,,0.75,Wunderground v.1.15,2013-05-28 10:30:00,
2013-05-28 05:36:00,59.7,59.4,29.67,ESE,113,1.0,8.0,99,0.00,,,0.75,Wunderground v.1.15,2013-05-28 10:36:00,
2013-05-28 05:42:00,59.6,59.3,29.67,ENE,68,1.0,8.0,99,0.00,,,0.75,Wunderground v.1.15,2013-05-28 10:42:00,
2013-05-28 05:48:00,59.5,59.2,29.68,East,101,1.0,8.0,99,0.00,,,0.75,Wunderground v.1.15,2013-05-28 10:48:00,
2013-05-28 05:54:00,59.5,59.2,29.68,NNE,32,1.0,8.0,99,0.00,,,0.75,Wunderground v.1.15,2013-05-28 10:54:00,
2013-05-28 06:00:00,59.5,59.2,29.68,NE,51,1.0,1.0,99,0.00,,,0.75,Wunderground v.1.15,2013-05-28 11:00:00,
2013-05-28 06:06:00,59.4,58.8,29.68,East,84,1.0,8.0,98,0.00,,,0.75,Wunderground v.1.15,2013-05-28 11:06:00,
2013-05-28 06:12:00,59.3,59.0,29.69,East,85,1.0,8.0,99,0.00,,,0.75,Wunderground v.1.15,2013-05-28 11:12:00,
2013-05-28 06:18:00,59.2,58.9,29.69,ENE,67,1.0,8.0,99,0.00,,,0.75,Wunderground v.1.15,2013-05-28 11:18:00,
2013-05-28 06:24:00,59.2,58.9,29.70,ENE,58,0.0,8.0,99,0.00,,,0.75,Wunderground v.1.15,2013-05-28 11:24:00,
2013-05-28 06:30:00,59.0,58.4,29.70,East,84,1.0,1.0,98,0.00,,,0.75,Wunderground v.1.15,2013-05-28 11:30:00,
2013-05-28 06:36:00,58.9,58.6,29.69,ENE,57,1.0,8.0,99,0.00,,,0.75,Wunderground v.1.15,2013-05-28 11:36:00,
2013-05-28 06:42:00,58.8,58.2,29.69,ENE,68,2.0,2.0,98,0.00,,,0.75,Wunderground v.1.15,2013-05-28 11:42:00,
2013-05-28 06:48:00,58.6,58.0,29.69,East,93,1.0,8.0,98,0.00,,,0.75,Wunderground v.1.15,2013-05-28 11:48:00,
2013-05-28 06:54:00,58.3,57.7,29.69,ENE,63,1.0,8.0,98,0.00,,,0.75,Wunderground v.1.15,2013-05-28 11:54:00,
2013-05-28 07:00:00,58.2,57.6,29.69,NE,53,2.0,2.0,98,0.00,,,0.75,Wunderground v.1.15,2013-05-28 12:00:00,
2013-05-28 07:06:00,58.1,57.8,29.70,ENE,78,2.0,8.0,99,0.00,,,0.75,Wunderground v.1.15,2013-05-28 12:06:00,
2013-05-28 07:12:00,58.0,57.4,29.70,NE,53,2.0,8.0,98,0.00,,,0.75,Wunderground v.1.15,2013-05-28 12:12:00,
2013-05-28 07:18:00,58.0,57.7,29.70,East,90,2.0,8.0,99,0.00,,,0.75,Wunderground v.1.15,2013-05-28 12:18:00,
2013-05-28 07:24:00,58.0,57.7,29.70,ENE,78,1.0,8.0,99,0.00,,,0.75,Wunderground v.1.15,2013-05-28 12:24:00,
2013-05-28 07:30:00,58.0,57.7,29.70,NE,44,1.0,1.0,99,0.00,,,0.75,Wunderground v.1.15,2013-05-28 12:30:00,
2013-05-28 07:36:00,58.0,57.4,29.70,NE,51,1.0,8.0,98,0.00,,,0.75,Wunderground v.1.15,2013-05-28 12:36:00,
2013-05-28 07:42:00,58.1,57.5,29.69,ESE,123,2.0,8.0,98,0.00,,,0.75,Wunderground v.1.15,2013-05-28 12:42:00,
2013-05-28 07:48:00,58.1,57.5,29.69,ENE,65,1.0,8.0,98,0.00,,,0.75,Wunderground v.1.15,2013-05-28 12:48:00,
2013-05-28 07:54:00,58.1,57.8,29.69,NNE,32,2.0,8.0,99,0.00,,,0.75,Wunderground v.1.15,2013-05-28 12:54:00,
2013-05-28 08:00:00,58.2,57.9,29.69,ENE,78,1.0,8.0,99,0.00,,,0.75,Wunderground v.1.15,2013-05-28 13:00:00,
2013-05-28 08:06:00,58.1,57.5,29.68,ESE,104,1.0,8.0,98,0.00,,,0.75,Wunderground v.1.15,2013-05-28 13:06:00,
2013-05-28 08:12:00,58.2,57.9,29.69,East,96,1.0,8.0,99,0.00,,,0.75,Wunderground v.1.15,2013-05-28 13:12:00,
2013-05-28 08:18:00,58.2,57.9,29.69,East,82,0.0,8.0,99,0.00,,,0.75,Wunderground v.1.15,2013-05-28 13:18:00,
2013-05-28 08:24:00,58.3,58.0,29.68,ENE,74,0.0,8.0,99,0.00,,,0.75,Wunderground v.1.15,2013-05-28 13:24:00,
2013-05-28 08:30:00,58.4,57.8,29.68,ESE,103,1.0,8.0,98,0.00,,,0.75,Wunderground v.1.15,2013-05-28 13:30:00,
2013-05-28 08:36:00,58.4,58.1,29.69,NE,55,1.0,8.0,99,0.00,,,0.75,Wunderground v.1.15,2013-05-28 13:36:00,
2013-05-28 08:42:00,58.6,58.3,29.69,ESE,108,1.0,8.0,99,0.00,,,0.75,Wunderground v.1.15,2013-05-28 13:42:00,
2013-05-28 08:48:00,58.8,58.5,29.69,ESE,105,1.0,8.0,99,0.00,,,0.75,Wunderground v.1.15,2013-05-28 13:48:00,
2013-05-28 08:54:00,58.8,58.2,29.68,East,92,1.0,8.0,98,0.00,,,0.75,Wunderground v.1.15,2013-05-28 13:54:00,
2013-05-28 09:00:00,59.0,58.4,29.68,ESE,119,0.0,8.0,98,0.00,,,0.75,Wunderground v.1.15,2013-05-28 14:00:00,
2013-05-28 09:06:00,59.3,59.0,29.68,ESE,110,0.0,8.0,99,0.00,,,0.75,Wunderground v.1.15,2013-05-28 14:06:00,
2013-05-28 09:12:00,59.3,58.7,29.68,East,91,1.0,8.0,98,0.00,,,0.75,Wunderground v.1.15,2013-05-28 14:12:00,
2013-05-28 09:18:00,59.5,58.9,29.68,ESE,115,1.0,8.0,98,0.00,,,0.75,Wunderground v.1.15,2013-05-28 14:18:00,
2013-05-28 09:24:00,59.9,59.6,29.68,SE,125,0.0,8.0,99,0.00,,,0.75,Wunderground v.1.15,2013-05-28 14:24:00,
2013-05-28 09:30:00,60.3,60.0,29.69,ESE,113,1.0,8.0,99,0.00,,,0.75,Wunderground v.1.15,2013-05-28 14:30:00,
2013-05-28 09:36:00,60.4,59.8,29.69,SE,128,1.0,8.0,98,0.00,,,0.75,Wunderground v.1.15,2013-05-28 14:36:00,
2013-05-28 09:42:00,60.8,60.2,29.69,SE,124,1.0,8.0,98,0.00,,,0.75,Wunderground v.1.15,2013-05-28 14:42:00,
2013-05-28 09:48:00,61.1,60.5,29.69,ESE,119,1.0,8.0,98,0.00,,,0.75,Wunderground v.1.15,2013-05-28 14:48:00,
2013-05-28 09:54:00,61.3,60.7,29.69,SE,138,1.0,8.0,98,0.00,,,0.75,Wunderground v.1.15,2013-05-28 14:54:00,
2013-05-28 10:00:00,61.6,61.0,29.69,ENE,77,1.0,1.0,98,0.00,,,0.75,Wunderground v.1.15,2013-05-28 15:00:00,
2013-05-28 10:06:00,61.8,60.9,29.69,East,88,0.0,8.0,97,0.00,,,0.75,Wunderground v.1.15,2013-05-28 15:06:00,
2013-05-28 10:12:00,62.4,61.5,29.69,SE,130,0.0,8.0,97,0.00,,,0.75,Wunderground v.1.15,2013-05-28 15:12:00,
2013-05-28 10:18:00,62.9,62.0,29.69,ESE,122,0.0,8.0,97,0.00,,,0.75,Wunderground v.1.15,2013-05-28 15:18:00,
2013-05-28 10:24:00,63.6,62.7,29.69,SE,144,1.0,8.0,97,0.00,,,0.75,Wunderground v.1.15,2013-05-28 15:24:00,
2013-05-28 10:30:00,64.3,63.1,29.69,SE,125,1.0,1.0,96,0.00,,,0.75,Wunderground v.1.15,2013-05-28 15:30:00,
2013-05-28 10:36:00,65.1,63.9,29.69,SSE,148,1.0,8.0,96,0.00,,,0.75,Wunderground v.1.15,2013-05-28 15:36:00,
2013-05-28 10:42:00,65.5,64.0,29.68,SSE,149,1.0,8.0,95,0.00,,,0.75,Wunderground v.1.15,2013-05-28 15:42:00,
2013-05-28 10:48:00,65.7,63.9,29.68,SW,222,1.0,8.0,94,0.00,,,0.75,Wunderground v.1.15,2013-05-28 15:48:00,
2013-05-28 10:54:00,66.3,64.2,29.68,West,277,1.0,8.0,93,0.00,,,0.75,Wunderground v.1.15,2013-05-28 15:54:00,
2013-05-28 11:00:00,66.8,64.7,29.69,SSW,208,1.0,8.0,93,0.00,,,0.75,Wunderground v.1.15,2013-05-28 16:00:00,
2013-05-28 11:06:00,67.1,64.7,29.68,SW,229,2.0,8.0,92,0.00,,,0.75,Wunderground v.1.15,2013-05-28 16:06:00,
2013-05-28 11:12:00,68.1,65.4,29.68,SSW,210,2.0,8.0,91,0.00,,,0.75,Wunderground v.1.15,2013-05-28 16:12:00,
2013-05-28 11:18:00,69.0,65.9,29.68,West,269,1.0,8.0,90,0.00,,,0.75,Wunderground v.1.15,2013-05-28 16:18:00,
2013-05-28 11:24:00,69.6,66.2,29.68,SSW,210,2.0,8.0,89,0.00,,,0.75,Wunderground v.1.15,2013-05-28 16:24:00,
2013-05-28 11:30:00,70.4,66.3,29.67,SW,218,1.0,8.0,87,0.00,,,0.75,Wunderground v.1.15,2013-05-28 16:30:00,
2013-05-28 11:36:00,70.5,66.1,29.67,SSW,204,2.0,8.0,86,0.00,,,0.75,Wunderground v.1.15,2013-05-28 16:36:00,
2013-05-28 11:42:00,70.6,66.5,29.67,SE,131,2.0,8.0,87,0.00,,,0.75,Wunderground v.1.15,2013-05-28 16:42:00,
2013-05-28 11:48:00,71.3,66.2,29.67,WSW,245,1.0,8.0,84,0.00,,,0.75,Wunderground v.1.15,2013-05-28 16:48:00,
2013-05-28 11:54:00,71.5,66.4,29.67,WSW,253,2.0,8.0,84,0.00,,,0.75,Wunderground v.1.15,2013-05-28 16:54:00,
2013-05-28 12:00:00,72.0,66.9,29.67,WNW,289,2.0,2.0,84,0.00,,,0.75,Wunderground v.1.15,2013-05-28 17:00:00,
2013-05-28 12:06:00,71.6,65.8,29.67,West,263,2.0,8.0,82,0.00,,,0.75,Wunderground v.1.15,2013-05-28 17:06:00,
2013-05-28 12:12:00,71.2,65.8,29.68,SW,224,3.0,8.0,83,0.00,,,0.75,Wunderground v.1.15,2013-05-28 17:12:00,
2013-05-28 12:18:00,71.3,66.6,29.68,SSE,155,2.0,8.0,85,0.00,,,0.75,Wunderground v.1.15,2013-05-28 17:18:00,
2013-05-28 12:24:00,71.3,65.9,29.68,SE,146,2.0,8.0,83,0.00,,,0.75,Wunderground v.1.15,2013-05-28 17:24:00,
2013-05-28 12:30:00,71.4,65.6,29.68,SE,135,2.0,2.0,82,0.00,,,0.75,Wunderground v.1.15,2013-05-28 17:30:00,
2013-05-28 12:36:00,71.6,65.8,29.67,SSE,158,2.0,8.0,82,0.00,,,0.75,Wunderground v.1.15,2013-05-28 17:36:00,
2013-05-28 12:42:00,72.2,66.0,29.67,SSW,200,2.0,8.0,81,0.00,,,0.75,Wunderground v.1.15,2013-05-28 17:42:00,
2013-05-28 12:48:00,72.4,65.9,29.67,WSW,240,2.0,8.0,80,0.00,,,0.75,Wunderground v.1.15,2013-05-28 17:48:00,
2013-05-28 12:54:00,72.7,66.2,29.67,SSE,152,2.0,8.0,80,0.00,,,0.75,Wunderground v.1.15,2013-05-28 17:54:00,
2013-05-28 13:00:00,73.0,66.5,29.68,WSW,245,2.0,8.0,80,0.00,,,0.75,Wunderground v.1.15,2013-05-28 18:00:00,
2013-05-28 13:06:00,73.0,66.5,29.68,SSW,208,1.0,8.0,80,0.00,,,0.75,Wunderground v.1.15,2013-05-28 18:06:00,
2013-05-28 13:12:00,73.2,66.3,29.68,SW,223,2.0,8.0,79,0.00,,,0.75,Wunderground v.1.15,2013-05-28 18:12:00,
2013-05-28 13:18:00,73.5,66.2,29.68,South,190,2.0,8.0,78,0.00,,,0.75,Wunderground v.1.15,2013-05-28 18:18:00,
2013-05-28 13:24:00,74.3,66.6,29.68,SW,218,2.0,8.0,77,0.00,,,0.75,Wunderground v.1.15,2013-05-28 18:24:00,
2013-05-28 13:30:00,75.2,67.5,29.68,ESE,119,1.0,1.0,77,0.00,,,0.75,Wunderground v.1.15,2013-05-28 18:30:00,
2013-05-28 13:36:00,75.5,66.6,29.68,SW,229,1.0,8.0,74,0.00,,,0.75,Wunderground v.1.15,2013-05-28 18:36:00,
2013-05-28 13:42:00,75.2,66.7,29.68,SE,140,2.0,8.0,75,0.00,,,0.75,Wunderground v.1.15,2013-05-28 18:42:00,
2013-05-28 13:48:00,74.9,66.4,29.68,South,187,1.0,8.0,75,0.00,,,0.75,Wunderground v.1.15,2013-05-28 18:48:00,
2013-05-28 13:54:00,74.7,66.6,29.68,SW,222,2.0,8.0,76,0.00,,,0.75,Wunderground v.1.15,2013-05-28 18:54:00,
2013-05-28 14:00:00,74.5,66.8,29.68,SW,235,2.0,8.0,77,0.00,,,0.75,Wunderground v.1.15,2013-05-28 19:00:00,
2013-05-28 14:06:00,74.6,66.9,29.68,WSW,250,1.0,8.0,77,0.00,,,0.75,Wunderground v.1.15,2013-05-28 19:06:00,
2013-05-28 14:12:00,75.4,67.3,29.68,WNW,289,1.0,8.0,76,0.00,,,0.75,Wunderground v.1.15,2013-05-28 19:12:00,
2013-05-28 14:18:00,75.6,66.7,29.68,West,266,2.0,8.0,74,0.00,,,0.75,Wunderground v.1.15,2013-05-28 19:18:00,
2013-05-28 14:24:00,75.5,66.2,29.69,SW,228,3.0,8.0,73,0.00,,,0.75,Wunderground v.1.15,2013-05-28 19:24:00,
2013-05-28 14:30:00,75.1,66.6,29.69,SW,235,3.0,3.0,75,0.00,,,0.75,Wunderground v.1.15,2013-05-28 19:30:00,
2013-05-28 14:36:00,76.0,66.3,29.69,South,190,3.0,8.0,72,0.00,,,0.75,Wunderground v.1.15,2013-05-28 19:36:00,
2013-05-28 14:42:00,77.0,66.9,29.69,WSW,243,3.0,4.0,71,0.00,,,0.75,Wunderground v.1.15,2013-05-28 19:42:00,
2013-05-28 14:48:00,77.0,66.9,29.69,SW,229,3.0,8.0,71,0.00,,,0.75,Wunderground v.1.15,2013-05-28 19:48:00,
2013-05-28 14:54:00,77.3,66.7,29.69,SW,232,2.0,6.0,70,0.00,,,0.75,Wunderground v.1.15,2013-05-28 19:54:00,
2013-05-28 15:00:00,77.5,66.9,29.69,WNW,290,2.0,8.0,70,0.00,,,0.75,Wunderground v.1.15,2013-05-28 20:00:00,
2013-05-28 15:06:00,76.9,66.4,29.69,WNW,283,2.0,8.0,70,0.00,,,0.75,Wunderground v.1.15,2013-05-28 20:06:00,
2013-05-28 15:12:00,76.7,66.6,29.68,WSW,242,3.0,8.0,71,0.00,,,0.75,Wunderground v.1.15,2013-05-28 20:12:00,
2013-05-28 15:18:00,77.4,67.3,29.68,South,172,2.0,8.0,71,0.00,,,0.75,Wunderground v.1.15,2013-05-28 20:18:00,
2013-05-28 15:24:00,78.7,67.7,29.68,WSW,256,1.0,8.0,69,0.00,,,0.75,Wunderground v.1.15,2013-05-28 20:24:00,
2013-05-28 15:30:00,78.4,66.5,29.68,WSW,248,2.0,2.0,67,0.00,,,0.75,Wunderground v.1.15,2013-05-28 20:30:00,
2013-05-28 15:36:00,78.9,67.4,29.68,SW,217,2.0,8.0,68,0.00,,,0.75,Wunderground v.1.15,2013-05-28 20:36:00,
2013-05-28 15:42:00,79.4,66.2,29.69,West,266,2.0,8.0,64,0.00,,,0.75,Wunderground v.1.15,2013-05-28 20:42:00,
2013-05-28 15:48:00,78.8,66.9,29.69,SW,228,3.0,8.0,67,0.00,,,0.75,Wunderground v.1.15,2013-05-28 20:48:00,
2013-05-28 15:54:00,79.5,66.3,29.69,SSW,207,3.0,8.0,64,0.00,,,0.75,Wunderground v.1.15,2013-05-28 20:54:00,
2013-05-28 16:00:00,79.2,66.4,29.69,SSW,205,2.0,8.0,65,0.00,,,0.75,Wunderground v.1.15,2013-05-28 21:00:00,
2013-05-28 16:06:00,78.5,66.2,29.70,West,267,2.0,8.0,66,0.00,,,0.75,Wunderground v.1.15,2013-05-28 21:06:00,
2013-05-28 16:12:00,77.7,65.9,29.70,SSW,212,3.0,8.0,67,0.00,,,0.75,Wunderground v.1.15,2013-05-28 21:12:00,
2013-05-28 16:18:00,77.7,65.4,29.69,SW,228,3.0,8.0,66,0.00,,,0.75,Wunderground v.1.15,2013-05-28 21:18:00,
2013-05-28 16:24:00,77.8,66.0,29.69,WSW,257,3.0,8.0,67,0.00,,,0.75,Wunderground v.1.15,2013-05-28 21:24:00,
2013-05-28 16:30:00,77.8,65.1,29.69,West,264,4.0,8.0,65,0.00,,,0.75,Wunderground v.1.15,2013-05-28 21:30:00,
2013-05-28 16:36:00,77.9,65.2,29.69,WSW,246,4.0,8.0,65,0.00,,,0.75,Wunderground v.1.15,2013-05-28 21:36:00,
2013-05-28 16:42:00,78.0,65.3,29.70,SW,224,3.0,8.0,65,0.00,,,0.75,Wunderground v.1.15,2013-05-28 21:42:00,
2013-05-28 16:48:00,77.9,65.6,29.70,SSE,158,3.0,8.0,66,0.00,,,0.75,Wunderground v.1.15,2013-05-28 21:48:00,
2013-05-28 16:54:00,77.4,65.1,29.70,SW,225,4.0,8.0,66,0.00,,,0.75,Wunderground v.1.15,2013-05-28 21:54:00,
2013-05-28 17:00:00,77.0,65.6,29.70,WSW,245,4.0,8.0,68,0.00,,,0.75,Wunderground v.1.15,2013-05-28 22:00:00,
2013-05-28 17:06:00,76.6,65.7,29.70,NNW,331,3.0,8.0,69,0.00,,,0.75,Wunderground v.1.15,2013-05-28 22:06:00,
2013-05-28 17:12:00,76.4,65.1,29.70,SW,232,3.0,8.0,68,0.00,,,0.75,Wunderground v.1.15,2013-05-28 22:12:00,
2013-05-28 17:18:00,76.1,65.6,29.70,West,264,3.0,8.0,70,0.00,,,0.75,Wunderground v.1.15,2013-05-28 22:18:00,
2013-05-28 17:24:00,76.0,65.5,29.70,WSW,240,3.0,8.0,70,0.00,,,0.75,Wunderground v.1.15,2013-05-28 22:24:00,
2013-05-28 17:30:00,75.9,65.8,29.70,WSW,239,3.0,8.0,71,0.00,,,0.75,Wunderground v.1.15,2013-05-28 22:30:00,
2013-05-28 17:36:00,76.1,66.4,29.70,SSW,204,2.0,8.0,72,0.00,,,0.75,Wunderground v.1.15,2013-05-28 22:36:00,
2013-05-28 17:42:00,76.9,66.8,29.70,NW,323,2.0,8.0,71,0.00,,,0.75,Wunderground v.1.15,2013-05-28 22:42:00,
2013-05-28 17:48:00,77.6,66.2,29.70,SSW,210,3.0,8.0,68,0.00,,,0.75,Wunderground v.1.15,2013-05-28 22:48:00,
2013-05-28 17:54:00,77.7,65.9,29.69,WSW,256,4.0,8.0,67,0.00,,,0.75,Wunderground v.1.15,2013-05-28 22:54:00,
2013-05-28 18:00:00,77.7,65.4,29.69,WSW,253,4.0,8.0,66,0.00,,,0.75,Wunderground v.1.15,2013-05-28 23:00:00,
2013-05-28 18:06:00,77.7,65.4,29.69,WSW,239,5.0,8.0,66,0.00,,,0.75,Wunderground v.1.15,2013-05-28 23:06:00,
2013-05-28 18:12:00,77.8,65.5,29.68,SW,222,5.0,10.0,66,0.00,,,0.75,Wunderground v.1.15,2013-05-28 23:12:00,
2013-05-28 18:18:00,78.0,65.3,29.68,West,263,5.0,10.0,65,0.00,,,0.75,Wunderground v.1.15,2013-05-28 23:18:00,
2013-05-28 18:24:00,78.1,65.4,29.69,WSW,249,4.0,8.0,65,0.00,,,0.75,Wunderground v.1.15,2013-05-28 23:24:00,
2013-05-28 18:30:00,78.1,65.4,29.68,WSW,256,5.0,5.0,65,0.00,,,0.75,Wunderground v.1.15,2013-05-28 23:30:00,
2013-05-28 18:36:00,77.9,65.6,29.68,SW,229,4.0,8.0,66,0.00,,,0.75,Wunderground v.1.15,2013-05-28 23:36:00,
2013-05-28 18:42:00,77.1,65.3,29.68,WSW,257,4.0,8.0,67,0.00,,,0.75,Wunderground v.1.15,2013-05-28 23:42:00,
2013-05-28 18:48:00,76.5,65.6,29.68,WSW,253,3.0,8.0,69,0.00,,,0.75,Wunderground v.1.15,2013-05-28 23:48:00,
2013-05-28 18:54:00,76.4,65.9,29.68,WNW,300,2.0,8.0,70,0.00,,,0.75,Wunderground v.1.15,2013-05-28 23:54:00,
2013-05-28 19:00:00,76.3,66.2,29.68,SW,226,0.0,8.0,71,0.00,,,0.75,Wunderground v.1.15,2013-05-29 00:00:00,
2013-05-28 19:06:00,76.0,66.3,29.67,NNW,332,0.0,8.0,72,0.00,,,0.75,Wunderground v.1.15,2013-05-29 00:06:00,
2013-05-28 19:12:00,75.5,65.4,29.65,WNW,302,0.0,8.0,71,0.00,,,0.75,Wunderground v.1.15,2013-05-29 00:12:00,
2013-05-28 19:18:00,75.3,65.2,29.65,WNW,287,0.0,8.0,71,0.00,,,0.75,Wunderground v.1.15,2013-05-29 00:18:00,
2013-05-28 19:24:00,75.1,65.5,29.65,WSW,249,0.0,8.0,72,0.00,,,0.75,Wunderground v.1.15,2013-05-29 00:24:00,
2013-05-28 19:30:00,74.8,65.6,29.65,WSW,248,0.0,8.0,73,0.00,,,0.75,Wunderground v.1.15,2013-05-29 00:30:00,
2013-05-28 19:36:00,74.6,65.4,29.66,WSW,249,0.0,8.0,73,0.00,,,0.75,Wunderground v.1.15,2013-05-29 00:36:00,
2013-05-28 19:42:00,74.5,65.3,29.67,SW,233,1.0,8.0,73,0.00,,,0.75,Wunderground v.1.15,2013-05-29 00:42:00,
2013-05-28 19:48:00,74.4,65.6,29.67,SSW,203,1.0,8.0,74,0.00,,,0.75,Wunderground v.1.15,2013-05-29 00:48:00,
2013-05-28 19:54:00,74.2,65.4,29.69,SSE,167,1.0,8.0,74,0.00,,,0.75,Wunderground v.1.15,2013-05-29 00:54:00,
2013-05-28 20:00:00,73.9,65.9,29.69,SSE,167,0.0,8.0,76,0.00,,,0.75,Wunderground v.1.15,2013-05-29 01:00:00,
2013-05-28 20:06:00,73.6,65.6,29.69,WSW,241,0.0,8.0,76,0.00,,,0.75,Wunderground v.1.15,2013-05-29 01:06:00,
2013-05-28 20:12:00,73.5,65.5,29.68,WSW,250,1.0,8.0,76,0.00,,,0.75,Wunderground v.1.15,2013-05-29 01:12:00,
2013-05-28 20:18:00,73.4,65.4,29.69,West,260,1.0,8.0,76,0.00,,,0.75,Wunderground v.1.15,2013-05-29 01:18:00,
2013-05-28 20:24:00,73.1,65.5,29.69,SSE,149,1.0,8.0,77,0.00,,,0.75,Wunderground v.1.15,2013-05-29 01:24:00,
2013-05-28 20:30:00,72.7,65.8,29.69,SSE,149,0.0,8.0,79,0.00,,,0.75,Wunderground v.1.15,2013-05-29 01:30:00,
2013-05-28 20:36:00,72.2,65.7,29.69,SE,143,0.0,8.0,80,0.00,,,0.75,Wunderground v.1.15,2013-05-29 01:36:00,
2013-05-28 20:42:00,71.8,65.7,29.69,SSE,150,0.0,8.0,81,0.00,,,0.75,Wunderground v.1.15,2013-05-29 01:42:00,
2013-05-28 20:48:00,71.5,65.7,29.68,SE,143,0.0,8.0,82,0.00,,,0.75,Wunderground v.1.15,2013-05-29 01:48:00,
2013-05-28 20:54:00,71.2,65.4,29.69,SE,143,0.0,8.0,82,0.00,,,0.75,Wunderground v.1.15,2013-05-29 01:54:00,
2013-05-28 21:00:00,71.0,65.6,29.70,SSE,155,0.0,8.0,83,0.00,,,0.75,Wunderground v.1.15,2013-05-29 02:00:00,
2013-05-28 21:06:00,70.9,65.5,29.70,SSE,159,0.0,8.0,83,0.00,,,0.75,Wunderground v.1.15,2013-05-29 02:06:00,
2013-05-28 21:12:00,70.7,65.3,29.70,SE,126,0.0,8.0,83,0.00,,,0.75,Wunderground v.1.15,2013-05-29 02:12:00,
2013-05-28 21:18:00,70.6,65.2,29.70,South,176,0.0,8.0,83,0.00,,,0.75,Wunderground v.1.15,2013-05-29 02:18:00,
2013-05-28 21:24:00,70.6,65.2,29.71,SSE,149,0.0,8.0,83,0.00,,,0.75,Wunderground v.1.15,2013-05-29 02:24:00,
2013-05-28 21:30:00,70.4,65.0,29.72,SSE,155,1.0,8.0,83,0.00,,,0.75,Wunderground v.1.15,2013-05-29 02:30:00,
2013-05-28 21:36:00,70.4,64.6,29.73,West,277,1.0,8.0,82,0.00,,,0.75,Wunderground v.1.15,2013-05-29 02:36:00,
2013-05-28 21:42:00,71.3,64.1,29.74,SSE,158,1.0,8.0,78,0.00,,,0.75,Wunderground v.1.15,2013-05-29 02:42:00,
2013-05-28 21:48:00,71.7,64.1,29.74,SSE,149,2.0,8.0,77,0.00,,,0.75,Wunderground v.1.15,2013-05-29 02:48:00,
2013-05-28 21:54:00,71.3,64.4,29.74,SSE,150,2.0,8.0,79,0.00,,,0.75,Wunderground v.1.15,2013-05-29 02:54:00,
2013-05-28 22:00:00,70.7,64.2,29.75,SSE,150,1.0,8.0,80,0.00,,,0.75,Wunderground v.1.15,2013-05-29 03:00:00,
2013-05-28 22:06:00,70.2,64.4,29.74,SE,124,2.0,8.0,82,0.00,,,0.75,Wunderground v.1.15,2013-05-29 03:06:00,
2013-05-28 22:12:00,69.6,64.2,29.73,SSE,153,1.0,8.0,83,0.00,,,0.75,Wunderground v.1.15,2013-05-29 03:12:00,
2013-05-28 22:18:00,69.1,64.4,29.73,SSE,155,2.0,8.0,85,0.00,,,0.75,Wunderground v.1.15,2013-05-29 03:18:00,
2013-05-28 22:24:00,68.8,64.4,29.74,South,169,1.0,8.0,86,0.00,,,0.75,Wunderground v.1.15,2013-05-29 03:24:00,
2013-05-28 22:30:00,68.6,64.6,29.75,SSE,155,2.0,8.0,87,0.00,,,0.75,Wunderground v.1.15,2013-05-29 03:30:00,
2013-05-28 22:36:00,68.5,64.8,29.75,SSE,164,3.0,8.0,88,0.00,,,0.75,Wunderground v.1.15,2013-05-29 03:36:00,
2013-05-28 22:42:00,68.4,64.7,29.76,SW,219,2.0,8.0,88,0.00,,,0.75,Wunderground v.1.15,2013-05-29 03:42:00,
2013-05-28 22:48:00,68.3,64.6,29.76,South,180,2.0,8.0,88,0.00,,,0.75,Wunderground v.1.15,2013-05-29 03:48:00,
2013-05-28 22:54:00,68.4,64.4,29.76,SSE,153,3.0,8.0,87,0.00,,,0.75,Wunderground v.1.15,2013-05-29 03:54:00,
2013-05-28 23:00:00,68.5,64.1,29.76,SSW,207,4.0,4.0,86,0.00,,,0.75,Wunderground v.1.15,2013-05-29 04:00:00,
2013-05-28 23:02:00,68.4,64.0,29.76,South,178,4.0,8.0,86,0.00,,,0.75,Wunderground v.1.15,2013-05-29 04:02:00,
2013-05-28 23:04:00,68.4,64.0,29.76,South,181,4.0,8.0,86,0.00,,,0.75,Wunderground v.1.15,2013-05-29 04:04:00,
2013-05-28 23:10:00,68.1,63.8,29.76,South,191,3.0,3.0,86,0.00,,,0.75,Wunderground v.1.15,2013-05-29 04:10:00,
2013-05-28 23:14:00,67.9,63.2,29.76,South,176,2.0,8.0,85,0.00,,,0.75,Wunderground v.1.15,2013-05-29 04:14:00,
2013-05-28 23:20:00,67.6,62.9,29.76,SE,139,2.0,8.0,85,0.00,,,0.75,Wunderground v.1.15,2013-05-29 04:20:00,
2013-05-28 23:26:00,67.3,62.6,29.75,South,169,1.0,8.0,85,0.00,,,0.75,Wunderground v.1.15,2013-05-29 04:26:00,
2013-05-28 23:28:00,67.2,62.5,29.75,SSE,155,1.0,8.0,85,0.00,,,0.75,Wunderground v.1.15,2013-05-29 04:28:00,
2013-05-28 23:34:00,66.8,62.1,29.74,South,181,1.0,8.0,85,0.00,,,0.75,Wunderground v.1.15,2013-05-29 04:34:00,
2013-05-28 23:40:00,66.5,61.8,29.74,SE,142,0.0,8.0,85,0.00,,,0.75,Wunderground v.1.15,2013-05-29 04:40:00,
2013-05-28 23:46:00,66.2,61.6,29.74,SW,223,0.0,8.0,85,0.00,,,0.75,Wunderground v.1.15,2013-05-29 04:46:00,
2013-05-28 23:52:00,65.8,61.5,29.73,SW,222,0.0,8.0,86,0.00,,,0.75,Wunderground v.1.15,2013-05-29 04:52:00,
2013-05-28 23:58:00,65.2,61.6,29.73,SW,223,0.0,8.0,88,0.00,,,0.75,Wunderground v.1.15,2013-05-29 04:58:00,